sensor_id;sensor_type;location;lat;lon;timestamp;P1;durP1;ratioP1;P2;durP2;ratioP2
30020;SDS011;16861;52.294;7.760;2022-09-21T00:01:18;5.43;;;1.20;;
30020;SDS011;16861;52.294;7.760;2022-09-21T00:03:47;3.40;;;0.90;;
30020;SDS011;16861;52.294;7.760;2022-09-21T00:06:17;2.38;;;1.17;;
30020;SDS011;16861;52.294;7.760;2022-09-21T00:08:45;2.13;;;0.85;;
30020;SDS011;16861;52.294;7.760;2022-09-21T00:11:13;2.70;;;1.20;;
30020;SDS011;16861;52.294;7.760;2022-09-21T00:13:46;3.15;;;1.05;;
30020;SDS011;16861;52.294;7.760;2022-09-21T00:16:17;2.40;;;0.90;;
30020;SDS011;16861;52.294;7.760;2022-09-21T00:18:43;3.05;;;0.90;;
30020;SDS011;16861;52.294;7.760;2022-09-21T00:21:11;2.20;;;0.82;;
30020;SDS011;16861;52.294;7.760;2022-09-21T00:23:39;1.40;;;0.95;;
30020;SDS011;16861;52.294;7.760;2022-09-21T00:26:11;3.60;;;1.02;;
30020;SDS011;16861;52.294;7.760;2022-09-21T00:28:40;4.30;;;1.40;;
30020;SDS011;16861;52.294;7.760;2022-09-21T00:31:08;3.20;;;1.33;;
30020;SDS011;16861;52.294;7.760;2022-09-21T00:33:38;2.42;;;1.10;;
30020;SDS011;16861;52.294;7.760;2022-09-21T00:36:07;2.67;;;1.20;;
30020;SDS011;16861;52.294;7.760;2022-09-21T00:38:35;3.38;;;1.38;;
30020;SDS011;16861;52.294;7.760;2022-09-21T00:41:04;2.20;;;1.13;;
30020;SDS011;16861;52.294;7.760;2022-09-21T00:46:54;2.35;;;0.82;;
30020;SDS011;16861;52.294;7.760;2022-09-21T00:49:26;3.25;;;1.40;;
30020;SDS011;16861;52.294;7.760;2022-09-21T00:51:53;3.97;;;1.55;;
30020;SDS011;16861;52.294;7.760;2022-09-21T00:54:24;2.90;;;1.30;;
30020;SDS011;16861;52.294;7.760;2022-09-21T00:56:54;2.13;;;1.30;;
30020;SDS011;16861;52.294;7.760;2022-09-21T00:59:25;3.22;;;1.30;;
30020;SDS011;16861;52.294;7.760;2022-09-21T01:01:55;3.55;;;1.63;;
30020;SDS011;16861;52.294;7.760;2022-09-21T01:04:23;5.43;;;1.70;;
30020;SDS011;16861;52.294;7.760;2022-09-21T01:06:51;5.35;;;1.15;;
30020;SDS011;16861;52.294;7.760;2022-09-21T01:09:19;2.78;;;1.00;;
30020;SDS011;16861;52.294;7.760;2022-09-21T01:17:23;3.58;;;1.00;;
30020;SDS011;16861;52.294;7.760;2022-09-21T01:25:57;5.20;;;1.40;;
30020;SDS011;16861;52.294;7.760;2022-09-21T01:31:13;3.58;;;1.08;;
30020;SDS011;16861;52.294;7.760;2022-09-21T01:33:47;1.67;;;0.90;;
30020;SDS011;16861;52.294;7.760;2022-09-21T01:36:19;2.05;;;1.00;;
30020;SDS011;16861;52.294;7.760;2022-09-21T01:38:51;5.28;;;1.00;;
30020;SDS011;16861;52.294;7.760;2022-09-21T01:41:23;2.45;;;1.00;;
30020;SDS011;16861;52.294;7.760;2022-09-21T01:43:54;3.03;;;1.00;;
30020;SDS011;16861;52.294;7.760;2022-09-21T01:46:28;3.17;;;1.20;;
30020;SDS011;16861;52.294;7.760;2022-09-21T01:48:58;3.08;;;1.00;;
30020;SDS011;16861;52.294;7.760;2022-09-21T01:51:30;3.33;;;1.10;;
30020;SDS011;16861;52.294;7.760;2022-09-21T01:54:19;3.45;;;1.10;;
30020;SDS011;16861;52.294;7.760;2022-09-21T01:56:53;3.28;;;1.20;;
30020;SDS011;16861;52.294;7.760;2022-09-21T01:59:29;4.03;;;1.65;;
30020;SDS011;16861;52.294;7.760;2022-09-21T02:02:28;2.60;;;1.30;;
30020;SDS011;16861;52.294;7.760;2022-09-21T02:05:01;3.72;;;1.20;;
30020;SDS011;16861;52.294;7.760;2022-09-21T02:07:31;6.28;;;1.20;;
30020;SDS011;16861;52.294;7.760;2022-09-21T02:09:59;5.07;;;1.50;;
30020;SDS011;16861;52.294;7.760;2022-09-21T02:12:28;3.08;;;1.48;;
30020;SDS011;16861;52.294;7.760;2022-09-21T02:14:56;4.20;;;1.27;;
30020;SDS011;16861;52.294;7.760;2022-09-21T02:17:40;3.33;;;1.30;;
30020;SDS011;16861;52.294;7.760;2022-09-21T02:25:35;4.55;;;1.30;;
30020;SDS011;16861;52.294;7.760;2022-09-21T02:28:14;3.15;;;1.20;;
30020;SDS011;16861;52.294;7.760;2022-09-21T02:30:45;3.40;;;1.10;;
30020;SDS011;16861;52.294;7.760;2022-09-21T02:33:31;5.40;;;1.30;;
30020;SDS011;16861;52.294;7.760;2022-09-21T02:36:10;4.13;;;1.35;;
30020;SDS011;16861;52.294;7.760;2022-09-21T02:39:03;2.00;;;0.98;;
30020;SDS011;16861;52.294;7.760;2022-09-21T02:41:36;11.77;;;1.48;;
30020;SDS011;16861;52.294;7.760;2022-09-21T02:44:24;2.85;;;1.25;;
30020;SDS011;16861;52.294;7.760;2022-09-21T02:47:07;1.92;;;1.10;;
30020;SDS011;16861;52.294;7.760;2022-09-21T02:49:40;3.20;;;1.15;;
30020;SDS011;16861;52.294;7.760;2022-09-21T02:52:12;5.90;;;1.30;;
30020;SDS011;16861;52.294;7.760;2022-09-21T02:54:41;5.10;;;1.20;;
30020;SDS011;16861;52.294;7.760;2022-09-21T02:57:13;2.17;;;0.80;;
30020;SDS011;16861;52.294;7.760;2022-09-21T02:59:42;3.30;;;0.85;;
30020;SDS011;16861;52.294;7.760;2022-09-21T03:02:09;4.28;;;1.10;;
30020;SDS011;16861;52.294;7.760;2022-09-21T03:04:38;2.65;;;0.90;;
30020;SDS011;16861;52.294;7.760;2022-09-21T03:07:06;1.63;;;0.90;;
30020;SDS011;16861;52.294;7.760;2022-09-21T03:09:34;2.28;;;0.90;;
30020;SDS011;16861;52.294;7.760;2022-09-21T03:12:01;2.15;;;0.70;;
30020;SDS011;16861;52.294;7.760;2022-09-21T03:14:28;3.45;;;1.00;;
30020;SDS011;16861;52.294;7.760;2022-09-21T03:16:54;3.22;;;0.95;;
30020;SDS011;16861;52.294;7.760;2022-09-21T03:19:21;3.40;;;0.82;;
30020;SDS011;16861;52.294;7.760;2022-09-21T03:21:47;4.88;;;0.90;;
30020;SDS011;16861;52.294;7.760;2022-09-21T03:24:14;4.63;;;1.10;;
30020;SDS011;16861;52.294;7.760;2022-09-21T03:27:00;3.95;;;1.20;;
30020;SDS011;16861;52.294;7.760;2022-09-21T03:29:27;2.70;;;0.70;;
30020;SDS011;16861;52.294;7.760;2022-09-21T03:31:53;1.75;;;0.57;;
30020;SDS011;16861;52.294;7.760;2022-09-21T03:34:21;2.75;;;1.20;;
30020;SDS011;16861;52.294;7.760;2022-09-21T03:36:48;3.13;;;0.68;;
30020;SDS011;16861;52.294;7.760;2022-09-21T03:39:14;1.85;;;0.75;;
30020;SDS011;16861;52.294;7.760;2022-09-21T03:41:41;2.85;;;0.82;;
30020;SDS011;16861;52.294;7.760;2022-09-21T03:44:07;3.40;;;0.90;;
30020;SDS011;16861;52.294;7.760;2022-09-21T03:46:34;2.90;;;0.95;;
30020;SDS011;16861;52.294;7.760;2022-09-21T03:49:00;2.25;;;0.90;;
30020;SDS011;16861;52.294;7.760;2022-09-21T03:51:28;2.40;;;0.60;;
30020;SDS011;16861;52.294;7.760;2022-09-21T03:53:56;5.65;;;1.10;;
30020;SDS011;16861;52.294;7.760;2022-09-21T03:56:23;2.35;;;0.70;;
30020;SDS011;16861;52.294;7.760;2022-09-21T03:58:49;1.45;;;0.60;;
30020;SDS011;16861;52.294;7.760;2022-09-21T04:01:16;3.65;;;0.75;;
30020;SDS011;16861;52.294;7.760;2022-09-21T04:03:42;2.08;;;0.80;;
30020;SDS011;16861;52.294;7.760;2022-09-21T04:06:09;7.65;;;1.67;;
30020;SDS011;16861;52.294;7.760;2022-09-21T04:08:37;3.58;;;0.93;;
30020;SDS011;16861;52.294;7.760;2022-09-21T04:11:11;2.35;;;0.70;;
30020;SDS011;16861;52.294;7.760;2022-09-21T04:13:42;2.53;;;0.70;;
30020;SDS011;16861;52.294;7.760;2022-09-21T04:16:10;5.10;;;0.88;;
30020;SDS011;16861;52.294;7.760;2022-09-21T04:18:37;1.17;;;0.52;;
30020;SDS011;16861;52.294;7.760;2022-09-21T04:21:04;0.88;;;0.60;;
30020;SDS011;16861;52.294;7.760;2022-09-21T04:23:31;3.28;;;0.95;;
30020;SDS011;16861;52.294;7.760;2022-09-21T04:25:58;5.15;;;0.75;;
30020;SDS011;16861;52.294;7.760;2022-09-21T04:28:25;4.22;;;1.00;;
30020;SDS011;16861;52.294;7.760;2022-09-21T04:30:52;4.82;;;1.00;;
30020;SDS011;16861;52.294;7.760;2022-09-21T04:33:21;3.15;;;0.90;;
30020;SDS011;16861;52.294;7.760;2022-09-21T04:35:55;3.10;;;0.88;;
30020;SDS011;16861;52.294;7.760;2022-09-21T04:40:57;1.58;;;0.90;;
30020;SDS011;16861;52.294;7.760;2022-09-21T04:43:24;2.05;;;0.65;;
30020;SDS011;16861;52.294;7.760;2022-09-21T04:45:51;1.20;;;0.90;;
30020;SDS011;16861;52.294;7.760;2022-09-21T04:48:17;2.70;;;1.13;;
30020;SDS011;16861;52.294;7.760;2022-09-21T04:50:47;4.03;;;1.15;;
30020;SDS011;16861;52.294;7.760;2022-09-21T04:53:15;2.95;;;1.15;;
30020;SDS011;16861;52.294;7.760;2022-09-21T04:55:43;2.08;;;1.63;;
30020;SDS011;16861;52.294;7.760;2022-09-21T04:58:10;3.30;;;1.23;;
30020;SDS011;16861;52.294;7.760;2022-09-21T05:00:37;2.15;;;1.10;;
30020;SDS011;16861;52.294;7.760;2022-09-21T05:03:03;2.08;;;1.27;;
30020;SDS011;16861;52.294;7.760;2022-09-21T05:05:30;4.35;;;1.35;;
30020;SDS011;16861;52.294;7.760;2022-09-21T05:07:57;1.95;;;1.10;;
30020;SDS011;16861;52.294;7.760;2022-09-21T05:10:23;3.95;;;1.40;;
30020;SDS011;16861;52.294;7.760;2022-09-21T05:12:50;6.20;;;1.38;;
30020;SDS011;16861;52.294;7.760;2022-09-21T05:15:17;6.25;;;1.80;;
30020;SDS011;16861;52.294;7.760;2022-09-21T05:17:44;5.90;;;2.03;;
30020;SDS011;16861;52.294;7.760;2022-09-21T05:20:11;3.03;;;1.60;;
30020;SDS011;16861;52.294;7.760;2022-09-21T05:22:38;6.72;;;2.03;;
30020;SDS011;16861;52.294;7.760;2022-09-21T05:25:05;6.38;;;2.58;;
30020;SDS011;16861;52.294;7.760;2022-09-21T05:27:32;4.35;;;2.10;;
30020;SDS011;16861;52.294;7.760;2022-09-21T05:29:59;4.70;;;2.42;;
30020;SDS011;16861;52.294;7.760;2022-09-21T05:35:05;7.50;;;2.38;;
30020;SDS011;16861;52.294;7.760;2022-09-21T05:40:19;5.45;;;2.80;;
30020;SDS011;16861;52.294;7.760;2022-09-21T05:42:46;3.85;;;2.67;;
30020;SDS011;16861;52.294;7.760;2022-09-21T05:45:13;3.50;;;2.50;;
30020;SDS011;16861;52.294;7.760;2022-09-21T05:50:40;7.97;;;2.70;;
30020;SDS011;16861;52.294;7.760;2022-09-21T05:53:35;4.57;;;2.40;;
30020;SDS011;16861;52.294;7.760;2022-09-21T05:56:13;5.25;;;2.40;;
30020;SDS011;16861;52.294;7.760;2022-09-21T06:04:28;4.93;;;2.70;;
30020;SDS011;16861;52.294;7.760;2022-09-21T06:06:55;5.82;;;3.92;;
30020;SDS011;16861;52.294;7.760;2022-09-21T06:09:22;5.93;;;3.38;;
30020;SDS011;16861;52.294;7.760;2022-09-21T06:11:51;5.75;;;3.83;;
30020;SDS011;16861;52.294;7.760;2022-09-21T06:14:17;7.38;;;4.05;;
30020;SDS011;16861;52.294;7.760;2022-09-21T06:16:50;7.45;;;3.92;;
30020;SDS011;16861;52.294;7.760;2022-09-21T06:19:17;8.60;;;3.88;;
30020;SDS011;16861;52.294;7.760;2022-09-21T06:21:44;5.75;;;3.90;;
30020;SDS011;16861;52.294;7.760;2022-09-21T06:24:10;7.72;;;4.25;;
30020;SDS011;16861;52.294;7.760;2022-09-21T06:26:37;7.90;;;3.55;;
30020;SDS011;16861;52.294;7.760;2022-09-21T06:29:03;4.65;;;3.80;;
30020;SDS011;16861;52.294;7.760;2022-09-21T06:31:30;5.00;;;3.50;;
30020;SDS011;16861;52.294;7.760;2022-09-21T06:33:56;5.30;;;3.75;;
30020;SDS011;16861;52.294;7.760;2022-09-21T06:36:23;9.00;;;4.38;;
30020;SDS011;16861;52.294;7.760;2022-09-21T06:38:49;6.20;;;4.20;;
30020;SDS011;16861;52.294;7.760;2022-09-21T06:41:17;7.43;;;3.90;;
30020;SDS011;16861;52.294;7.760;2022-09-21T06:43:46;8.10;;;4.05;;
30020;SDS011;16861;52.294;7.760;2022-09-21T06:46:13;6.85;;;4.65;;
30020;SDS011;16861;52.294;7.760;2022-09-21T06:48:40;7.78;;;4.43;;
30020;SDS011;16861;52.294;7.760;2022-09-21T06:51:06;11.38;;;3.85;;
30020;SDS011;16861;52.294;7.760;2022-09-21T06:53:33;8.25;;;4.25;;
30020;SDS011;16861;52.294;7.760;2022-09-21T06:56:04;5.32;;;3.88;;
30020;SDS011;16861;52.294;7.760;2022-09-21T06:58:33;6.15;;;3.75;;
30020;SDS011;16861;52.294;7.760;2022-09-21T07:01:09;9.07;;;3.72;;
30020;SDS011;16861;52.294;7.760;2022-09-21T07:03:38;6.93;;;3.63;;
30020;SDS011;16861;52.294;7.760;2022-09-21T07:06:05;5.35;;;3.53;;
30020;SDS011;16861;52.294;7.760;2022-09-21T07:08:33;4.82;;;2.92;;
30020;SDS011;16861;52.294;7.760;2022-09-21T07:11:21;5.88;;;3.47;;
30020;SDS011;16861;52.294;7.760;2022-09-21T07:13:49;6.18;;;3.10;;
30020;SDS011;16861;52.294;7.760;2022-09-21T07:16:15;9.18;;;2.80;;
30020;SDS011;16861;52.294;7.760;2022-09-21T07:18:42;4.93;;;2.60;;
30020;SDS011;16861;52.294;7.760;2022-09-21T07:21:09;4.13;;;2.65;;
30020;SDS011;16861;52.294;7.760;2022-09-21T07:23:36;5.43;;;2.30;;
30020;SDS011;16861;52.294;7.760;2022-09-21T07:26:04;5.43;;;2.10;;
30020;SDS011;16861;52.294;7.760;2022-09-21T07:28:33;8.82;;;2.58;;
30020;SDS011;16861;52.294;7.760;2022-09-21T07:31:13;5.10;;;2.20;;
30020;SDS011;16861;52.294;7.760;2022-09-21T07:33:42;5.45;;;2.28;;
30020;SDS011;16861;52.294;7.760;2022-09-21T07:36:11;6.32;;;1.88;;
30020;SDS011;16861;52.294;7.760;2022-09-21T07:38:39;5.82;;;2.45;;
30020;SDS011;16861;52.294;7.760;2022-09-21T07:41:09;5.88;;;2.22;;
30020;SDS011;16861;52.294;7.760;2022-09-21T07:43:38;5.40;;;2.03;;
30020;SDS011;16861;52.294;7.760;2022-09-21T07:46:06;4.28;;;1.67;;
30020;SDS011;16861;52.294;7.760;2022-09-21T07:48:34;6.68;;;2.55;;
30020;SDS011;16861;52.294;7.760;2022-09-21T07:51:02;4.30;;;2.10;;
30020;SDS011;16861;52.294;7.760;2022-09-21T07:53:34;5.60;;;2.53;;
30020;SDS011;16861;52.294;7.760;2022-09-21T07:56:03;5.35;;;2.47;;
30020;SDS011;16861;52.294;7.760;2022-09-21T07:58:30;4.53;;;1.80;;
30020;SDS011;16861;52.294;7.760;2022-09-21T08:01:16;9.88;;;1.95;;
30020;SDS011;16861;52.294;7.760;2022-09-21T08:03:43;4.88;;;2.10;;
30020;SDS011;16861;52.294;7.760;2022-09-21T08:06:09;3.75;;;2.03;;
30020;SDS011;16861;52.294;7.760;2022-09-21T08:08:36;5.70;;;2.00;;
30020;SDS011;16861;52.294;7.760;2022-09-21T08:11:03;7.18;;;1.90;;
30020;SDS011;16861;52.294;7.760;2022-09-21T08:13:33;3.67;;;2.30;;
30020;SDS011;16861;52.294;7.760;2022-09-21T08:16:00;5.68;;;2.10;;
30020;SDS011;16861;52.294;7.760;2022-09-21T08:18:27;5.13;;;2.38;;
30020;SDS011;16861;52.294;7.760;2022-09-21T08:20:59;5.30;;;2.22;;
30020;SDS011;16861;52.294;7.760;2022-09-21T08:23:26;5.50;;;2.10;;
30020;SDS011;16861;52.294;7.760;2022-09-21T08:26:01;5.22;;;1.90;;
30020;SDS011;16861;52.294;7.760;2022-09-21T08:28:28;6.00;;;1.98;;
30020;SDS011;16861;52.294;7.760;2022-09-21T08:30:59;6.18;;;2.30;;
30020;SDS011;16861;52.294;7.760;2022-09-21T08:33:27;7.00;;;2.53;;
30020;SDS011;16861;52.294;7.760;2022-09-21T08:35:55;4.38;;;2.10;;
30020;SDS011;16861;52.294;7.760;2022-09-21T08:38:25;7.85;;;2.30;;
30020;SDS011;16861;52.294;7.760;2022-09-21T08:40:52;4.70;;;1.90;;
30020;SDS011;16861;52.294;7.760;2022-09-21T08:43:28;10.70;;;1.58;;
30020;SDS011;16861;52.294;7.760;2022-09-21T08:46:04;10.05;;;1.88;;
30020;SDS011;16861;52.294;7.760;2022-09-21T08:48:38;3.60;;;1.42;;
30020;SDS011;16861;52.294;7.760;2022-09-21T08:51:13;3.67;;;1.30;;
30020;SDS011;16861;52.294;7.760;2022-09-21T08:53:48;5.25;;;1.73;;
30020;SDS011;16861;52.294;7.760;2022-09-21T08:56:17;4.43;;;1.60;;
30020;SDS011;16861;52.294;7.760;2022-09-21T08:58:47;7.13;;;1.98;;
30020;SDS011;16861;52.294;7.760;2022-09-21T09:06:24;6.55;;;2.00;;
30020;SDS011;16861;52.294;7.760;2022-09-21T09:22:45;5.32;;;2.30;;
30020;SDS011;16861;52.294;7.760;2022-09-21T09:25:16;4.05;;;1.80;;
30020;SDS011;16861;52.294;7.760;2022-09-21T09:27:47;5.90;;;1.70;;
30020;SDS011;16861;52.294;7.760;2022-09-21T09:30:19;5.83;;;2.17;;
30020;SDS011;16861;52.294;7.760;2022-09-21T09:35:34;5.03;;;1.90;;
30020;SDS011;16861;52.294;7.760;2022-09-21T09:38:18;7.90;;;1.70;;
30020;SDS011;16861;52.294;7.760;2022-09-21T09:43:51;10.48;;;1.90;;
30020;SDS011;16861;52.294;7.760;2022-09-21T09:46:29;6.25;;;1.70;;
30020;SDS011;16861;52.294;7.760;2022-09-21T09:49:09;6.30;;;1.90;;
30020;SDS011;16861;52.294;7.760;2022-09-21T09:51:37;3.58;;;1.80;;
30020;SDS011;16861;52.294;7.760;2022-09-21T09:54:07;7.45;;;1.55;;
30020;SDS011;16861;52.294;7.760;2022-09-21T09:56:39;4.93;;;1.95;;
30020;SDS011;16861;52.294;7.760;2022-09-21T09:59:09;4.68;;;1.92;;
30020;SDS011;16861;52.294;7.760;2022-09-21T10:01:44;5.35;;;1.88;;
30020;SDS011;16861;52.294;7.760;2022-09-21T10:04:13;5.40;;;1.70;;
30020;SDS011;16861;52.294;7.760;2022-09-21T10:06:43;4.85;;;1.65;;
30020;SDS011;16861;52.294;7.760;2022-09-21T10:09:28;4.50;;;1.77;;
30020;SDS011;16861;52.294;7.760;2022-09-21T10:12:00;5.55;;;1.45;;
30020;SDS011;16861;52.294;7.760;2022-09-21T10:14:35;4.05;;;1.63;;
30020;SDS011;16861;52.294;7.760;2022-09-21T10:17:05;5.22;;;1.70;;
30020;SDS011;16861;52.294;7.760;2022-09-21T10:19:33;5.30;;;2.15;;
30020;SDS011;16861;52.294;7.760;2022-09-21T10:22:01;5.22;;;1.73;;
30020;SDS011;16861;52.294;7.760;2022-09-21T10:29:42;6.78;;;1.90;;
30020;SDS011;16861;52.294;7.760;2022-09-21T10:34:40;5.30;;;1.85;;
30020;SDS011;16861;52.294;7.760;2022-09-21T10:42:47;7.00;;;1.45;;
30020;SDS011;16861;52.294;7.760;2022-09-21T10:47:57;8.13;;;1.60;;
30020;SDS011;16861;52.294;7.760;2022-09-21T10:50:38;4.55;;;1.63;;
30020;SDS011;16861;52.294;7.760;2022-09-21T10:55:39;4.15;;;1.35;;
30020;SDS011;16861;52.294;7.760;2022-09-21T10:58:29;3.92;;;1.35;;
30020;SDS011;16861;52.294;7.760;2022-09-21T11:01:10;2.83;;;1.30;;
30020;SDS011;16861;52.294;7.760;2022-09-21T11:06:35;4.43;;;1.77;;
30020;SDS011;16861;52.294;7.760;2022-09-21T11:17:12;3.50;;;1.20;;
30020;SDS011;16861;52.294;7.760;2022-09-21T11:27:53;3.72;;;1.17;;
30020;SDS011;16861;52.294;7.760;2022-09-21T11:30:30;3.53;;;1.00;;
30020;SDS011;16861;52.294;7.760;2022-09-21T11:36:07;3.53;;;1.20;;
30020;SDS011;16861;52.294;7.760;2022-09-21T11:47:00;2.35;;;0.88;;
30020;SDS011;16861;52.294;7.760;2022-09-21T11:49:53;5.10;;;0.90;;
30020;SDS011;16861;52.294;7.760;2022-09-21T11:58:15;0.77;;;0.70;;
30020;SDS011;16861;52.294;7.760;2022-09-21T12:04:00;2.63;;;0.82;;
30020;SDS011;16861;52.294;7.760;2022-09-21T12:12:37;2.45;;;0.90;;
30020;SDS011;16861;52.294;7.760;2022-09-21T12:17:52;1.75;;;0.70;;
30020;SDS011;16861;52.294;7.760;2022-09-21T12:23:45;2.88;;;0.77;;
30020;SDS011;16861;52.294;7.760;2022-09-21T12:26:18;1.10;;;0.55;;
30020;SDS011;16861;52.294;7.760;2022-09-21T12:28:54;1.38;;;0.50;;
30020;SDS011;16861;52.294;7.760;2022-09-21T12:31:31;2.60;;;0.60;;
30020;SDS011;16861;52.294;7.760;2022-09-21T12:34:17;2.42;;;0.70;;
30020;SDS011;16861;52.294;7.760;2022-09-21T12:36:58;2.45;;;0.85;;
30020;SDS011;16861;52.294;7.760;2022-09-21T12:39:40;1.02;;;0.60;;
30020;SDS011;16861;52.294;7.760;2022-09-21T12:42:21;1.83;;;0.80;;
30020;SDS011;16861;52.294;7.760;2022-09-21T12:44:58;2.70;;;0.70;;
30020;SDS011;16861;52.294;7.760;2022-09-21T12:47:56;1.70;;;0.50;;
30020;SDS011;16861;52.294;7.760;2022-09-21T12:50:37;2.15;;;0.55;;
30020;SDS011;16861;52.294;7.760;2022-09-21T12:53:07;0.63;;;0.32;;
30020;SDS011;16861;52.294;7.760;2022-09-21T12:58:25;1.38;;;0.40;;
30020;SDS011;16861;52.294;7.760;2022-09-21T13:01:18;0.57;;;0.30;;
30020;SDS011;16861;52.294;7.760;2022-09-21T13:03:54;1.83;;;0.80;;
30020;SDS011;16861;52.294;7.760;2022-09-21T13:09:19;1.70;;;0.60;;
30020;SDS011;16861;52.294;7.760;2022-09-21T13:11:55;0.93;;;0.30;;
30020;SDS011;16861;52.294;7.760;2022-09-21T13:14:26;0.93;;;0.50;;
30020;SDS011;16861;52.294;7.760;2022-09-21T13:17:00;1.10;;;0.43;;
30020;SDS011;16861;52.294;7.760;2022-09-21T13:19:29;9.30;;;0.52;;
30020;SDS011;16861;52.294;7.760;2022-09-21T13:30:38;0.82;;;0.47;;
30020;SDS011;16861;52.294;7.760;2022-09-21T13:38:26;1.95;;;0.80;;
30020;SDS011;16861;52.294;7.760;2022-09-21T13:41:00;1.48;;;0.50;;
30020;SDS011;16861;52.294;7.760;2022-09-21T13:54:23;1.23;;;0.73;;
30020;SDS011;16861;52.294;7.760;2022-09-21T13:59:58;1.30;;;0.60;;
30020;SDS011;16861;52.294;7.760;2022-09-21T14:02:34;1.48;;;0.57;;
30020;SDS011;16861;52.294;7.760;2022-09-21T14:07:59;1.80;;;0.77;;
30020;SDS011;16861;52.294;7.760;2022-09-21T14:10:28;1.70;;;0.75;;
30020;SDS011;16861;52.294;7.760;2022-09-21T14:12:57;1.17;;;0.70;;
30020;SDS011;16861;52.294;7.760;2022-09-21T14:23:35;1.70;;;1.40;;
30020;SDS011;16861;52.294;7.760;2022-09-21T14:32:00;2.03;;;0.90;;
30020;SDS011;16861;52.294;7.760;2022-09-21T14:34:30;1.58;;;1.00;;
30020;SDS011;16861;52.294;7.760;2022-09-21T14:37:03;0.93;;;0.70;;
30020;SDS011;16861;52.294;7.760;2022-09-21T14:39:39;1.10;;;0.70;;
30020;SDS011;16861;52.294;7.760;2022-09-21T14:42:12;1.47;;;0.80;;
30020;SDS011;16861;52.294;7.760;2022-09-21T14:44:42;1.98;;;0.68;;
30020;SDS011;16861;52.294;7.760;2022-09-21T14:55:32;1.40;;;0.70;;
30020;SDS011;16861;52.294;7.760;2022-09-21T15:04:17;1.83;;;0.80;;
30020;SDS011;16861;52.294;7.760;2022-09-21T15:19:20;0.80;;;0.50;;
30020;SDS011;16861;52.294;7.760;2022-09-21T15:27:10;2.80;;;0.82;;
30020;SDS011;16861;52.294;7.760;2022-09-21T15:29:45;1.00;;;0.50;;
30020;SDS011;16861;52.294;7.760;2022-09-21T15:32:22;0.82;;;0.50;;
30020;SDS011;16861;52.294;7.760;2022-09-21T15:37:41;1.65;;;0.70;;
30020;SDS011;16861;52.294;7.760;2022-09-21T15:45:54;0.65;;;0.40;;
30020;SDS011;16861;52.294;7.760;2022-09-21T15:48:25;2.03;;;0.47;;
30020;SDS011;16861;52.294;7.760;2022-09-21T15:51:15;1.67;;;0.70;;
30020;SDS011;16861;52.294;7.760;2022-09-21T15:53:50;1.00;;;0.50;;
30020;SDS011;16861;52.294;7.760;2022-09-21T15:56:22;0.77;;;0.45;;
30020;SDS011;16861;52.294;7.760;2022-09-21T15:58:51;1.10;;;0.57;;
30020;SDS011;16861;52.294;7.760;2022-09-21T16:04:15;0.73;;;0.50;;
30020;SDS011;16861;52.294;7.760;2022-09-21T16:06:45;0.70;;;0.52;;
30020;SDS011;16861;52.294;7.760;2022-09-21T16:11:49;1.55;;;0.50;;
30020;SDS011;16861;52.294;7.760;2022-09-21T16:14:17;1.67;;;0.60;;
30020;SDS011;16861;52.294;7.760;2022-09-21T16:24:55;1.55;;;0.63;;
30020;SDS011;16861;52.294;7.760;2022-09-21T16:27:29;1.40;;;0.70;;
30020;SDS011;16861;52.294;7.760;2022-09-21T16:29:57;6.60;;;0.93;;
30020;SDS011;16861;52.294;7.760;2022-09-21T16:37:43;1.17;;;0.60;;
30020;SDS011;16861;52.294;7.760;2022-09-21T16:40:09;1.55;;;0.70;;
30020;SDS011;16861;52.294;7.760;2022-09-21T16:42:36;0.82;;;0.55;;
30020;SDS011;16861;52.294;7.760;2022-09-21T16:45:05;1.92;;;0.60;;
30020;SDS011;16861;52.294;7.760;2022-09-21T16:47:49;3.35;;;0.70;;
30020;SDS011;16861;52.294;7.760;2022-09-21T16:50:18;4.88;;;0.70;;
30020;SDS011;16861;52.294;7.760;2022-09-21T16:52:45;2.55;;;0.65;;
30020;SDS011;16861;52.294;7.760;2022-09-21T16:55:12;1.77;;;0.90;;
30020;SDS011;16861;52.294;7.760;2022-09-21T16:57:40;2.75;;;0.70;;
30020;SDS011;16861;52.294;7.760;2022-09-21T17:00:11;3.67;;;0.77;;
30020;SDS011;16861;52.294;7.760;2022-09-21T17:02:39;1.75;;;0.60;;
30020;SDS011;16861;52.294;7.760;2022-09-21T17:05:08;1.35;;;0.77;;
30020;SDS011;16861;52.294;7.760;2022-09-21T17:07:35;2.20;;;0.55;;
30020;SDS011;16861;52.294;7.760;2022-09-21T17:10:08;4.50;;;0.77;;
30020;SDS011;16861;52.294;7.760;2022-09-21T17:12:37;4.80;;;0.90;;
30020;SDS011;16861;52.294;7.760;2022-09-21T17:15:04;5.85;;;1.52;;
30020;SDS011;16861;52.294;7.760;2022-09-21T17:17:33;3.20;;;1.65;;
30020;SDS011;16861;52.294;7.760;2022-09-21T17:20:01;2.03;;;1.40;;
30020;SDS011;16861;52.294;7.760;2022-09-21T17:22:32;3.08;;;1.70;;
30020;SDS011;16861;52.294;7.760;2022-09-21T17:24:58;2.42;;;1.33;;
30020;SDS011;16861;52.294;7.760;2022-09-21T17:27:25;3.50;;;1.00;;
30020;SDS011;16861;52.294;7.760;2022-09-21T17:29:54;2.30;;;0.80;;
30020;SDS011;16861;52.294;7.760;2022-09-21T17:32:22;1.42;;;0.70;;
30020;SDS011;16861;52.294;7.760;2022-09-21T17:34:51;2.47;;;0.80;;
30020;SDS011;16861;52.294;7.760;2022-09-21T17:37:23;1.48;;;0.80;;
30020;SDS011;16861;52.294;7.760;2022-09-21T17:39:50;2.63;;;0.85;;
30020;SDS011;16861;52.294;7.760;2022-09-21T17:42:19;2.67;;;1.00;;
30020;SDS011;16861;52.294;7.760;2022-09-21T17:45:12;3.45;;;0.70;;
30020;SDS011;16861;52.294;7.760;2022-09-21T17:47:46;1.67;;;0.75;;
30020;SDS011;16861;52.294;7.760;2022-09-21T17:52:50;1.58;;;0.77;;
30020;SDS011;16861;52.294;7.760;2022-09-21T17:55:37;2.10;;;0.60;;
30020;SDS011;16861;52.294;7.760;2022-09-21T17:58:09;3.80;;;0.95;;
30020;SDS011;16861;52.294;7.760;2022-09-21T18:00:57;1.80;;;0.70;;
30020;SDS011;16861;52.294;7.760;2022-09-21T18:03:33;2.78;;;0.65;;
30020;SDS011;16861;52.294;7.760;2022-09-21T18:06:06;3.28;;;0.85;;
30020;SDS011;16861;52.294;7.760;2022-09-21T18:08:34;4.18;;;0.90;;
30020;SDS011;16861;52.294;7.760;2022-09-21T18:11:24;2.33;;;0.73;;
30020;SDS011;16861;52.294;7.760;2022-09-21T18:13:57;3.65;;;0.80;;
30020;SDS011;16861;52.294;7.760;2022-09-21T18:25:31;1.33;;;0.65;;
30020;SDS011;16861;52.294;7.760;2022-09-21T18:28:24;5.03;;;1.05;;
30020;SDS011;16861;52.294;7.760;2022-09-21T18:44:29;3.17;;;0.60;;
30020;SDS011;16861;52.294;7.760;2022-09-21T18:47:14;6.22;;;0.70;;
30020;SDS011;16861;52.294;7.760;2022-09-21T18:55:00;0.52;;;0.50;;
30020;SDS011;16861;52.294;7.760;2022-09-21T18:57:27;1.67;;;0.82;;
30020;SDS011;16861;52.294;7.760;2022-09-21T18:59:58;5.15;;;0.70;;
30020;SDS011;16861;52.294;7.760;2022-09-21T19:02:25;7.68;;;1.02;;
30020;SDS011;16861;52.294;7.760;2022-09-21T19:04:52;1.73;;;0.77;;
30020;SDS011;16861;52.294;7.760;2022-09-21T19:12:48;2.08;;;0.93;;
30020;SDS011;16861;52.294;7.760;2022-09-21T19:15:24;2.30;;;0.75;;
30020;SDS011;16861;52.294;7.760;2022-09-21T19:26:24;2.90;;;0.52;;
30020;SDS011;16861;52.294;7.760;2022-09-21T19:31:38;1.17;;;0.52;;
30020;SDS011;16861;52.294;7.760;2022-09-21T19:34:17;5.97;;;0.50;;
30020;SDS011;16861;52.294;7.760;2022-09-21T19:36:45;5.10;;;0.60;;
30020;SDS011;16861;52.294;7.760;2022-09-21T19:39:15;1.60;;;0.63;;
30020;SDS011;16861;52.294;7.760;2022-09-21T19:47:02;3.20;;;0.80;;
30020;SDS011;16861;52.294;7.760;2022-09-21T19:49:37;1.42;;;0.50;;
30020;SDS011;16861;52.294;7.760;2022-09-21T19:52:30;3.00;;;0.70;;
30020;SDS011;16861;52.294;7.760;2022-09-21T19:54:59;1.35;;;0.50;;
30020;SDS011;16861;52.294;7.760;2022-09-21T19:57:45;1.23;;;0.75;;
30020;SDS011;16861;52.294;7.760;2022-09-21T20:00:31;2.50;;;0.70;;
30020;SDS011;16861;52.294;7.760;2022-09-21T20:03:00;1.08;;;0.65;;
30020;SDS011;16861;52.294;7.760;2022-09-21T20:05:45;1.77;;;0.80;;
30020;SDS011;16861;52.294;7.760;2022-09-21T20:14:06;3.10;;;0.90;;
30020;SDS011;16861;52.294;7.760;2022-09-21T20:16:48;2.35;;;0.80;;